Time;durP1;ratioP1;P1;durP2;ratioP2;P2;SDS_P1;SDS_P2;PMS_P1;PMS_P2;Temp;Humidity;BMP_temperature;BMP_pressure;BME280_temperature;BME280_humidity;BME280_pressure;Samples;Min_cycle;Max_cycle;Signal;HPM_P1;HPM_P2
2022/06/18 00:00:50;;;;;;;9.18;7.68;;;18.50;99.90;;;;;;5057003;28;20048;-74
2022/06/18 00:03:17;;;;;;;9.52;8.52;;;18.50;99.90;;;;;;5035482;28;20040;-74
2022/06/18 00:05:45;;;;;;;9.45;8.40;;;18.40;99.90;;;;;;5043803;28;20114;-74
2022/06/18 00:08:15;;;;;;;8.73;7.45;;;18.40;99.90;;;;;;5058745;28;20037;-74
2022/06/18 00:10:42;;;;;;;11.15;7.68;;;18.30;99.90;;;;;;5060822;28;20033;-74
2022/06/18 00:13:39;;;;;;;11.27;7.97;;;18.30;99.90;;;;;;5043899;28;20140;-74
2022/06/18 00:16:06;;;;;;;10.25;7.38;;;18.30;99.90;;;;;;5038089;28;20142;-74
2022/06/18 00:18:32;;;;;;;9.20;7.75;;;18.20;99.90;;;;;;5031531;28;20046;-74
2022/06/18 00:21:00;;;;;;;9.60;7.63;;;18.20;99.90;;;;;;5030930;28;20535;-75
2022/06/18 00:23:26;;;;;;;9.77;6.90;;;18.20;99.90;;;;;;5027450;28;20049;-74
2022/06/18 00:25:52;;;;;;;9.05;7.82;;;18.10;99.90;;;;;;5031970;28;20038;-74
2022/06/18 00:28:29;;;;;;;10.68;7.35;;;18.10;99.90;;;;;;5030296;28;20038;-74
2022/06/18 00:30:55;;;;;;;9.98;7.25;;;18.10;99.90;;;;;;5031832;28;20397;-74
2022/06/18 00:33:22;;;;;;;8.15;6.40;;;18.10;99.90;;;;;;5030579;28;20073;-74
2022/06/18 00:35:50;;;;;;;10.45;7.45;;;18.10;99.90;;;;;;5029638;28;20505;-74
2022/06/18 00:38:26;;;;;;;10.77;7.28;;;18.20;99.90;;;;;;5030998;28;20083;-74
2022/06/18 00:40:52;;;;;;;13.53;7.80;;;18.20;99.90;;;;;;5031399;28;20037;-74
2022/06/18 00:43:27;;;;;;;9.00;7.93;;;18.30;99.90;;;;;;5028257;28;20780;-74
2022/06/18 00:45:59;;;;;;;11.05;6.72;;;18.30;99.90;;;;;;5030666;28;20049;-74
2022/06/18 00:48:34;;;;;;;15.45;7.78;;;18.30;99.90;;;;;;5030681;28;20072;-74
2022/06/18 00:51:08;;;;;;;12.25;6.70;;;18.40;99.90;;;;;;5031559;28;20072;-74
2022/06/18 00:53:42;;;;;;;8.90;6.22;;;18.40;99.90;;;;;;5031381;28;20116;-74
2022/06/18 00:56:15;;;;;;;12.85;6.80;;;18.40;99.90;;;;;;5030577;28;20091;-74
2022/06/18 00:58:47;;;;;;;13.30;7.20;;;18.40;99.90;;;;;;5031454;28;20052;-74
2022/06/18 01:01:22;;;;;;;17.90;8.13;;;18.40;99.90;;;;;;5029460;28;20473;-74
2022/06/18 01:03:49;;;;;;;14.27;7.20;;;18.40;99.90;;;;;;5029891;28;20045;-74
2022/06/18 01:06:20;;;;;;;14.73;7.47;;;18.30;99.90;;;;;;5030800;28;20465;-74
2022/06/18 01:08:49;;;;;;;14.65;7.60;;;18.30;99.90;;;;;;5030539;28;20079;-74
2022/06/18 01:11:27;;;;;;;12.07;7.60;;;18.30;99.90;;;;;;5030888;28;20064;-74
2022/06/18 01:13:53;;;;;;;14.80;7.65;;;18.30;99.90;;;;;;5030056;28;20485;-73
2022/06/18 01:16:19;;;;;;;15.32;8.32;;;18.20;99.90;;;;;;5038798;28;20107;-74
2022/06/18 01:18:48;;;;;;;16.63;8.50;;;18.20;99.90;;;;;;5055559;28;20037;-74
2022/06/18 01:21:32;;;;;;;12.52;7.75;;;18.20;99.90;;;;;;5045573;28;20053;-74
2022/06/18 01:24:09;;;;;;;12.68;7.63;;;18.10;99.90;;;;;;5054285;28;20055;-74
2022/06/18 01:26:36;;;;;;;16.40;8.15;;;18.10;99.90;;;;;;5053144;28;20119;-74
2022/06/18 01:29:02;;;;;;;13.00;8.13;;;18.10;99.90;;;;;;5039052;28;20080;-74
2022/06/18 01:31:27;;;;;;;17.30;8.75;;;18.00;99.90;;;;;;5041540;28;20048;-74
2022/06/18 01:33:56;;;;;;;16.15;8.52;;;18.00;99.90;;;;;;5055582;28;20033;-73
2022/06/18 01:36:23;;;;;;;13.93;8.00;;;17.90;99.90;;;;;;5045843;28;20045;-74
2022/06/18 01:38:48;;;;;;;13.57;8.77;;;17.80;99.90;;;;;;5055528;28;20120;-74
2022/06/18 01:44:09;;;;;;;11.15;8.90;;;17.80;99.90;;;;;;5040575;28;20128;-74
2022/06/18 01:46:37;;;;;;;15.55;8.27;;;17.70;99.90;;;;;;5045984;28;20053;-74
2022/06/18 01:49:06;;;;;;;13.35;8.18;;;17.80;99.90;;;;;;5045425;28;20041;-74
2022/06/18 01:51:39;;;;;;;12.73;8.27;;;17.70;99.90;;;;;;5055086;28;20052;-74
2022/06/18 01:54:21;;;;;;;11.02;7.88;;;17.60;99.90;;;;;;5045571;28;20048;-74
2022/06/18 01:56:52;;;;;;;14.60;7.93;;;17.50;99.90;;;;;;5055194;28;20071;-74
2022/06/18 01:59:32;;;;;;;11.23;7.43;;;17.50;99.90;;;;;;5053574;28;20045;-74
2022/06/18 02:01:58;;;;;;;16.30;8.38;;;17.50;99.90;;;;;;5055195;28;20051;-74
2022/06/18 02:04:27;;;;;;;15.48;7.55;;;17.50;99.90;;;;;;5055374;28;20497;-74
2022/06/18 02:06:53;;;;;;;10.80;7.25;;;17.40;99.90;;;;;;5045163;28;20040;-74
2022/06/18 02:09:35;;;;;;;10.75;7.50;;;17.40;99.90;;;;;;5054951;28;20094;-74
2022/06/18 02:12:04;;;;;;;12.25;7.82;;;17.40;99.90;;;;;;5053719;28;20201;-74
2022/06/18 02:14:32;;;;;;;12.90;7.75;;;17.30;99.90;;;;;;5044102;28;20052;-74
2022/06/18 02:17:01;;;;;;;10.77;7.78;;;17.30;99.90;;;;;;5054313;28;20155;-74
2022/06/18 02:19:27;;;;;;;12.60;8.40;;;17.30;99.90;;;;;;5053749;28;20045;-73
2022/06/18 02:21:55;;;;;;;14.43;8.60;;;17.20;99.90;;;;;;5041312;28;20045;-73
2022/06/18 02:24:21;;;;;;;14.35;8.95;;;17.20;99.90;;;;;;5043818;28;20044;-74
2022/06/18 02:26:50;;;;;;;15.80;8.75;;;17.20;99.90;;;;;;5043527;28;20119;-74
2022/06/18 02:29:26;;;;;;;16.30;9.80;;;17.10;99.90;;;;;;5053129;28;20139;-73
2022/06/18 02:31:52;;;;;;;15.50;9.02;;;17.10;99.90;;;;;;5038433;28;20042;-74
2022/06/18 02:34:21;;;;;;;16.85;9.35;;;17.50;99.90;;;;;;5052841;28;20037;-74
2022/06/18 02:36:47;;;;;;;16.60;8.95;;;17.00;99.90;;;;;;5053971;28;20061;-73
2022/06/18 02:39:24;;;;;;;13.85;9.43;;;16.90;99.90;;;;;;5043771;28;20056;-73
2022/06/18 02:41:53;;;;;;;17.45;9.82;;;16.90;99.90;;;;;;5049785;28;20045;-73
2022/06/18 02:44:19;;;;;;;12.70;8.93;;;16.80;99.90;;;;;;5049310;28;20380;-73
2022/06/18 02:46:45;;;;;;;15.23;9.20;;;16.80;99.90;;;;;;5044110;28;20044;-74
2022/06/18 02:49:12;;;;;;;15.63;9.38;;;16.80;99.90;;;;;;5043153;28;20041;-73
2022/06/18 02:51:39;;;;;;;18.40;9.20;;;16.80;99.90;;;;;;5053382;28;20396;-74
2022/06/18 02:54:09;;;;;;;13.40;9.23;;;16.80;99.90;;;;;;5042935;28;20045;-73
2022/06/18 02:56:34;;;;;;;13.43;9.43;;;16.70;99.90;;;;;;5041268;28;20057;-74
2022/06/18 02:59:00;;;;;;;16.75;9.68;;;16.70;99.90;;;;;;5053491;28;20045;-73
2022/06/18 03:01:26;;;;;;;16.48;10.15;;;16.70;99.90;;;;;;5052609;28;20112;-73
2022/06/18 03:03:59;;;;;;;18.80;9.70;;;16.60;99.90;;;;;;5043286;28;20041;-74
2022/06/18 03:06:27;;;;;;;13.65;10.05;;;16.60;99.90;;;;;;5043554;28;20044;-74
2022/06/18 03:08:53;;;;;;;14.25;10.05;;;16.60;99.90;;;;;;5052503;28;20040;-74
2022/06/18 03:14:06;;;;;;;16.88;11.32;;;16.60;99.90;;;;;;5043277;28;20056;-74
2022/06/18 03:16:32;;;;;;;16.25;10.48;;;16.50;99.90;;;;;;5042092;28;20045;-75
2022/06/18 03:18:59;;;;;;;17.17;10.85;;;16.50;99.90;;;;;;5053166;28;20400;-74
2022/06/18 03:21:34;;;;;;;18.70;10.63;;;16.80;99.90;;;;;;5052918;28;20546;-72
2022/06/18 03:24:00;;;;;;;13.63;9.80;;;16.50;99.90;;;;;;5042058;28;20056;-73
2022/06/18 03:26:26;;;;;;;17.27;10.65;;;16.40;99.90;;;;;;5040577;28;20041;-73
2022/06/18 03:28:57;;;;;;;14.85;9.75;;;16.40;99.90;;;;;;5043510;28;20068;-74
2022/06/18 03:31:23;;;;;;;17.45;9.63;;;17.30;99.90;;;;;;5042070;28;20033;-74
2022/06/18 03:33:50;;;;;;;14.85;9.70;;;16.40;99.90;;;;;;5042965;28;20052;-74
2022/06/18 03:36:21;;;;;;;14.00;9.57;;;16.40;99.90;;;;;;5041683;28;20037;-74
2022/06/18 03:38:50;;;;;;;16.58;9.35;;;16.40;99.90;;;;;;5052506;28;20041;-74
2022/06/18 03:41:20;;;;;;;12.98;9.38;;;16.40;99.90;;;;;;5052179;28;20542;-74
2022/06/18 03:43:47;;;;;;;14.27;9.23;;;16.40;99.90;;;;;;5052046;28;20048;-74
2022/06/18 03:46:17;;;;;;;14.10;8.93;;;16.40;99.90;;;;;;5051783;28;20070;-74
2022/06/18 03:48:55;;;;;;;17.15;9.25;;;16.40;99.90;;;;;;5042733;28;20052;-74
2022/06/18 03:51:21;;;;;;;12.50;8.98;;;16.40;99.90;;;;;;5041730;28;20481;-74
2022/06/18 03:53:47;;;;;;;14.80;8.70;;;16.40;99.90;;;;;;5052038;28;20041;-74
2022/06/18 03:56:15;;;;;;;12.35;9.15;;;16.40;99.90;;;;;;5051934;28;20175;-74
2022/06/18 03:58:42;;;;;;;14.75;8.75;;;16.50;99.90;;;;;;5041827;28;20987;-74
2022/06/18 04:01:10;;;;;;;14.75;8.70;;;16.50;99.90;;;;;;5042519;28;20041;-74
2022/06/18 04:03:39;;;;;;;13.35;8.82;;;16.50;99.90;;;;;;5048143;28;20041;-74
2022/06/18 04:06:05;;;;;;;13.20;8.52;;;16.50;99.90;;;;;;5034238;28;20124;-75
2022/06/18 04:08:33;;;;;;;15.73;8.70;;;16.60;99.90;;;;;;5051137;28;20551;-74
2022/06/18 04:10:59;;;;;;;13.32;7.55;;;16.60;99.90;;;;;;5052295;28;20048;-74
2022/06/18 04:13:24;;;;;;;14.88;8.13;;;16.60;99.90;;;;;;5051070;28;20044;-74
2022/06/18 04:15:50;;;;;;;13.15;7.72;;;16.60;99.90;;;;;;5042147;28;20045;-74
2022/06/18 04:18:19;;;;;;;11.40;7.60;;;17.00;99.90;;;;;;5050930;28;20099;-74
2022/06/18 04:20:44;;;;;;;15.13;7.75;;;17.50;99.90;;;;;;5051915;28;20045;-74
2022/06/18 04:23:15;;;;;;;12.13;7.10;;;16.80;99.90;;;;;;5051370;28;20123;-74
2022/06/18 04:25:41;;;;;;;12.50;7.85;;;16.70;99.90;;;;;;5050657;28;20068;-74
2022/06/18 04:28:06;;;;;;;10.48;6.88;;;16.80;99.90;;;;;;5051985;28;20068;-74
2022/06/18 04:30:33;;;;;;;14.13;7.00;;;16.80;99.90;;;;;;5042263;28;20072;-74
2022/06/18 04:32:59;;;;;;;12.98;6.90;;;16.90;99.90;;;;;;5041524;28;20131;-74
2022/06/18 04:35:25;;;;;;;10.50;6.75;;;16.90;99.90;;;;;;5041850;28;20055;-74
2022/06/18 04:37:51;;;;;;;11.93;6.60;;;17.00;99.90;;;;;;5051708;28;20124;-74
2022/06/18 04:40:26;;;;;;;14.93;6.88;;;17.00;99.90;;;;;;5040627;28;20049;-74
2022/06/18 04:42:51;;;;;;;10.20;6.53;;;17.10;99.90;;;;;;5050817;28;20520;-74
2022/06/18 04:45:17;;;;;;;11.40;5.95;;;17.20;99.90;;;;;;5051017;28;20065;-75
2022/06/18 04:47:43;;;;;;;8.90;5.93;;;17.30;99.90;;;;;;5051065;28;20037;-74
2022/06/18 04:50:16;;;;;;;9.40;5.38;;;17.30;99.90;;;;;;5050883;28;20049;-74
2022/06/18 04:52:42;;;;;;;10.27;5.75;;;17.30;99.90;;;;;;5051031;28;20029;-74
2022/06/18 04:55:08;;;;;;;12.50;5.97;;;17.40;99.90;;;;;;5041573;28;20503;-74
2022/06/18 04:57:33;;;;;;;11.57;5.85;;;17.50;99.90;;;;;;5051195;28;20041;-74
2022/06/18 04:59:59;;;;;;;12.23;6.10;;;17.50;99.90;;;;;;5051576;28;20087;-74
2022/06/18 05:02:29;;;;;;;13.00;6.15;;;17.60;99.90;;;;;;5040291;28;20037;-74
2022/06/18 05:04:55;;;;;;;11.13;5.43;;;17.60;99.90;;;;;;5046959;28;20045;-74
2022/06/18 05:07:21;;;;;;;9.70;5.70;;;17.70;99.90;;;;;;5050435;28;20029;-74
2022/06/18 05:09:49;;;;;;;10.48;5.72;;;17.80;99.90;;;;;;5049971;28;20090;-74
2022/06/18 05:12:16;;;;;;;13.75;5.90;;;17.80;99.90;;;;;;5050789;28;20052;-74
2022/06/18 05:14:44;;;;;;;9.52;5.22;;;17.90;99.90;;;;;;5040707;28;20044;-74
2022/06/18 05:17:17;;;;;;;11.45;5.40;;;18.00;99.90;;;;;;5050223;28;20053;-75
2022/06/18 05:19:43;;;;;;;8.40;4.60;;;18.00;99.90;;;;;;5041483;28;20041;-74
2022/06/18 05:22:09;;;;;;;14.60;4.57;;;18.30;99.90;;;;;;5040174;28;20044;-74
2022/06/18 05:24:35;;;;;;;11.35;4.63;;;18.10;99.90;;;;;;5040858;28;20052;-74
2022/06/18 05:27:01;;;;;;;10.95;4.93;;;18.10;99.90;;;;;;5050873;28;20049;-74
2022/06/18 05:29:27;;;;;;;9.57;4.75;;;18.10;99.90;;;;;;5040187;28;20071;-74
2022/06/18 05:31:53;;;;;;;8.50;4.82;;;18.10;99.90;;;;;;5041558;28;20041;-74
2022/06/18 05:34:19;;;;;;;7.60;4.22;;;18.20;99.90;;;;;;5050012;28;20397;-75
2022/06/18 05:36:44;;;;;;;6.15;3.67;;;18.30;99.90;;;;;;5049965;28;20103;-74
2022/06/18 05:39:15;;;;;;;12.18;4.65;;;18.20;99.90;;;;;;5050083;28;20069;-75
2022/06/18 05:41:41;;;;;;;10.10;4.30;;;18.40;99.90;;;;;;5050778;28;20051;-74
2022/06/18 05:44:06;;;;;;;8.60;4.18;;;18.50;99.90;;;;;;5049676;28;20120;-75
2022/06/18 05:46:32;;;;;;;7.28;3.90;;;18.60;99.90;;;;;;5041356;28;20045;-74
2022/06/18 05:48:58;;;;;;;7.88;3.95;;;18.50;99.90;;;;;;5040960;28;20492;-74
2022/06/18 05:51:24;;;;;;;6.10;3.40;;;18.60;99.90;;;;;;5039432;28;20102;-75
2022/06/18 05:53:49;;;;;;;7.20;3.70;;;18.70;99.90;;;;;;5050499;28;20041;-74
2022/06/18 05:56:16;;;;;;;6.47;3.15;;;18.70;99.90;;;;;;5040582;28;20489;-74
2022/06/18 05:58:41;;;;;;;6.30;3.45;;;18.80;99.90;;;;;;5039664;28;20041;-74
2022/06/18 06:01:07;;;;;;;6.72;3.22;;;18.80;99.90;;;;;;5050309;28;20116;-74
2022/06/18 06:03:33;;;;;;;8.13;2.97;;;18.70;99.90;;;;;;5040812;28;20501;-74
2022/06/18 06:05:59;;;;;;;5.40;3.10;;;18.80;99.90;;;;;;5044375;28;20504;-74
2022/06/18 06:08:26;;;;;;;7.22;2.88;;;18.80;99.90;;;;;;5053692;28;20393;-74
2022/06/18 06:13:35;;;;;;;5.07;2.03;;;18.90;99.90;;;;;;5044783;28;20116;-74
2022/06/18 06:16:01;;;;;;;5.70;2.03;;;18.90;99.90;;;;;;5043934;28;20088;-74
2022/06/18 06:18:28;;;;;;;6.15;2.60;;;19.00;99.90;;;;;;5043139;28;20049;-74
2022/06/18 06:20:55;;;;;;;5.75;2.30;;;19.10;99.90;;;;;;5044666;28;20063;-74
2022/06/18 06:23:22;;;;;;;4.65;2.20;;;19.10;99.90;;;;;;5039646;28;20041;-74
2022/06/18 06:25:49;;;;;;;5.25;2.00;;;19.10;99.90;;;;;;5053538;28;20104;-74
2022/06/18 06:28:29;;;;;;;4.70;2.15;;;19.20;99.90;;;;;;5053306;28;20083;-74
2022/06/18 06:30:55;;;;;;;4.25;2.10;;;19.30;99.90;;;;;;5054519;28;20496;-74
2022/06/18 06:33:21;;;;;;;4.88;1.80;;;19.30;99.90;;;;;;5043240;28;20053;-74
2022/06/18 06:35:47;;;;;;;4.85;1.73;;;19.30;99.90;;;;;;5053663;28;20043;-74
2022/06/18 06:38:13;;;;;;;3.05;1.67;;;19.30;99.90;;;;;;5043600;28;20507;-74
2022/06/18 06:40:42;;;;;;;3.60;1.80;;;19.30;99.90;;;;;;5049105;28;20040;-73
2022/06/18 06:43:10;;;;;;;3.72;1.80;;;19.40;99.90;;;;;;5040799;28;20045;-73
2022/06/18 06:45:35;;;;;;;3.80;1.58;;;19.50;99.90;;;;;;5053874;28;20076;-74
2022/06/18 06:48:01;;;;;;;3.67;1.45;;;19.50;99.90;;;;;;5042302;28;20057;-74
2022/06/18 06:50:29;;;;;;;4.53;1.60;;;19.60;99.90;;;;;;5053641;28;20388;-75
2022/06/18 06:52:55;;;;;;;4.35;1.75;;;19.60;99.90;;;;;;5053646;28;20044;-76
2022/06/18 06:58:15;;;;;;;4.13;2.08;;;19.70;99.90;;;;;;5035802;28;20060;-75
2022/06/18 07:00:43;;;;;;;4.65;1.90;;;19.80;99.90;;;;;;5041754;28;20548;-74
2022/06/18 07:03:13;;;;;;;3.75;1.60;;;19.90;99.90;;;;;;5052618;28;20060;-74
2022/06/18 07:05:40;;;;;;;3.75;1.73;;;20.00;99.90;;;;;;5052705;28;20040;-75
2022/06/18 07:08:06;;;;;;;4.35;1.75;;;20.10;99.90;;;;;;5042633;28;20091;-75
2022/06/18 07:10:35;;;;;;;3.72;1.73;;;20.20;99.90;;;;;;5044051;28;20049;-74
2022/06/18 07:13:00;;;;;;;3.38;1.63;;;20.20;99.90;;;;;;5052631;28;20384;-74
2022/06/18 07:15:26;;;;;;;5.70;1.55;;;20.30;99.90;;;;;;5042700;28;20044;-74
2022/06/18 07:17:52;;;;;;;5.53;1.80;;;20.50;99.90;;;;;;5062493;28;20400;-74
2022/06/18 07:20:19;;;;;;;3.85;1.77;;;20.80;99.90;;;;;;5062091;28;20044;-74
2022/06/18 07:22:48;;;;;;;5.38;1.52;;;21.30;99.90;;;;;;5043118;28;20051;-75
2022/06/18 07:25:15;;;;;;;4.93;1.80;;;21.60;99.90;;;;;;5043944;28;20063;-75
2022/06/18 07:27:42;;;;;;;3.05;1.55;;;22.10;99.90;;;;;;5060864;28;20131;-74
2022/06/18 07:30:09;;;;;;;3.60;2.00;;;22.40;99.90;;;;;;5042312;28;20542;-74
2022/06/18 07:32:37;;;;;;;4.63;1.55;;;22.60;99.90;;;;;;5064408;28;20074;-74
2022/06/18 07:35:04;;;;;;;4.85;1.90;;;22.80;99.90;;;;;;5042799;28;20056;-75
2022/06/18 07:37:30;;;;;;;3.35;1.90;;;22.70;99.90;;;;;;5056078;28;20043;-74
2022/06/18 07:39:56;;;;;;;3.38;1.77;;;22.70;99.90;;;;;;5063829;28;20450;-74
2022/06/18 07:42:23;;;;;;;3.25;1.60;;;22.70;99.90;;;;;;5042776;28;20048;-75
2022/06/18 07:44:49;;;;;;;2.83;1.40;;;22.70;99.90;;;;;;5042388;28;20040;-75
2022/06/18 07:47:17;;;;;;;2.67;1.25;;;22.90;99.90;;;;;;5062036;28;20037;-75
2022/06/18 07:49:45;;;;;;;4.82;1.50;;;23.10;99.90;;;;;;5061411;28;20492;-75
2022/06/18 07:52:14;;;;;;;3.47;1.55;;;23.50;99.90;;;;;;5061787;28;20051;-76
2022/06/18 07:54:42;;;;;;;4.25;1.60;;;23.60;99.90;;;;;;5045093;28;20468;-75
2022/06/18 07:57:08;;;;;;;5.85;1.85;;;23.80;99.90;;;;;;5042505;28;20098;-76
2022/06/18 07:59:33;;;;;;;3.67;1.85;;;24.20;99.90;;;;;;5045250;28;20048;-76
2022/06/18 08:01:59;;;;;;;5.22;1.60;;;24.50;99.90;;;;;;5060331;28;20053;-85
2022/06/18 08:04:26;;;;;;;3.20;1.50;;;24.70;99.90;;;;;;5038105;28;20045;-79
2022/06/18 08:06:52;;;;;;;4.22;1.63;;;25.10;99.90;;;;;;5060570;28;20044;-77
2022/06/18 08:09:18;;;;;;;3.60;1.70;;;25.30;99.90;;;;;;5041773;28;20348;-79
2022/06/18 08:11:44;;;;;;;3.35;1.45;;;25.60;99.90;;;;;;5060427;28;20040;-75
2022/06/18 08:14:11;;;;;;;4.85;1.42;;;26.00;99.90;;;;;;5058888;28;20428;-75
2022/06/18 08:16:37;;;;;;;4.05;1.60;;;26.00;99.90;;;;;;5062168;28;20106;-75
2022/06/18 08:19:03;;;;;;;4.00;1.50;;;26.30;99.90;;;;;;5059677;28;20041;-73
2022/06/18 08:21:36;;;;;;;4.40;1.40;;;26.50;99.70;;;;;;5063339;28;20195;-75
2022/06/18 08:24:06;;;;;;;3.40;1.38;;;26.60;98.50;;;;;;5044429;28;20531;-74
2022/06/18 08:26:34;;;;;;;5.07;1.40;;;26.90;98.90;;;;;;5055146;28;20033;-74
2022/06/18 08:29:02;;;;;;;3.00;1.30;;;26.90;99.20;;;;;;5044733;28;20043;-75
2022/06/18 08:31:28;;;;;;;2.95;1.20;;;27.10;98.60;;;;;;5041969;28;20045;-75
2022/06/18 08:33:55;;;;;;;2.83;1.20;;;26.70;98.50;;;;;;5045847;28;20048;-74
2022/06/18 08:36:21;;;;;;;5.70;1.50;;;26.50;98.90;;;;;;5035888;28;20501;-75
2022/06/18 08:38:49;;;;;;;6.78;1.50;;;26.10;99.10;;;;;;5053787;28;20106;-74
2022/06/18 08:41:33;;;;;;;3.10;1.30;;;25.80;99.30;;;;;;5054267;28;20076;-74
2022/06/18 08:44:18;;;;;;;4.18;1.50;;;25.60;99.10;;;;;;5059335;28;20045;-75
2022/06/18 08:47:08;;;;;;;3.55;1.60;;;25.70;99.60;;;;;;5059371;28;20110;-73
2022/06/18 08:50:00;;;;;;;5.72;1.70;;;25.70;99.40;;;;;;5042953;28;20056;-73
2022/06/18 08:52:54;;;;;;;6.00;1.52;;;26.00;98.70;;;;;;5041563;28;20051;-77
2022/06/18 08:55:41;;;;;;;3.78;1.20;;;25.80;98.70;;;;;;5034478;28;20045;-72
2022/06/18 08:58:31;;;;;;;4.10;1.35;;;25.90;98.90;;;;;;5043031;28;20092;-73
2022/06/18 09:01:08;;;;;;;3.25;1.52;;;26.10;98.70;;;;;;5059790;28;20055;-72
2022/06/18 09:03:52;;;;;;;3.22;1.25;;;26.30;98.60;;;;;;5042864;28;20086;-79
2022/06/18 09:06:49;;;;;;;2.75;1.20;;;26.80;98.30;;;;;;5040640;28;20044;-71
2022/06/18 09:09:41;;;;;;;3.75;1.17;;;27.30;97.50;;;;;;5037800;28;20087;-74
2022/06/18 09:12:14;;;;;;;2.85;1.30;;;27.40;97.10;;;;;;5061516;28;20049;-72
2022/06/18 09:14:49;;;;;;;3.88;1.30;;;27.80;97.10;;;;;;5040745;28;20048;-73
2022/06/18 09:17:31;;;;;;;3.75;1.33;;;27.80;96.80;;;;;;5054998;28;20061;-80
2022/06/18 09:20:15;;;;;;;3.70;1.40;;;28.00;96.90;;;;;;5038664;28;20056;-73
2022/06/18 09:23:05;;;;;;;2.47;1.15;;;28.20;96.00;;;;;;5036321;28;20219;-71
2022/06/18 09:25:38;;;;;;;4.72;1.50;;;28.00;95.40;;;;;;5039338;28;20063;-73
2022/06/18 09:28:12;;;;;;;2.92;0.80;;;28.10;95.20;;;;;;5060962;28;20041;-71
2022/06/18 09:31:08;;;;;;;5.00;1.25;;;27.90;95.10;;;;;;5059626;28;20052;-72
2022/06/18 09:33:42;;;;;;;4.20;1.13;;;28.00;95.20;;;;;;5059064;28;20044;-71
2022/06/18 09:36:24;;;;;;;3.17;1.00;;;28.10;94.30;;;;;;5058002;28;20056;-83
2022/06/18 09:39:02;;;;;;;3.05;1.10;;;28.20;94.10;;;;;;5061857;28;20052;-78
2022/06/18 09:41:34;;;;;;;3.83;1.20;;;28.20;94.20;;;;;;5045299;28;20564;-80
2022/06/18 09:44:30;;;;;;;2.35;1.00;;;28.40;94.80;;;;;;5064537;28;20049;-78
2022/06/18 09:47:01;;;;;;;;;;;28.80;94.80;;;;;;5063166;28;20056;-80
2022/06/18 09:49:29;;;;;;;3.15;1.00;;;28.80;94.00;;;;;;5045937;28;19921;-74
2022/06/18 09:52:14;;;;;;;2.92;1.10;;;29.10;94.20;;;;;;5062504;28;20052;-83
2022/06/18 09:54:49;;;;;;;3.38;0.82;;;29.40;93.30;;;;;;5063017;28;20041;-83
2022/06/18 09:57:18;;;;;;;4.10;1.05;;;29.40;92.40;;;;;;5059858;28;20041;-84
2022/06/18 09:59:55;;;;;;;2.60;1.08;;;29.20;93.00;;;;;;5065550;28;20219;-82
2022/06/18 10:02:27;;;;;;;2.28;0.90;;;29.20;91.90;;;;;;5061937;28;20059;-82
2022/06/18 10:07:42;;;;;;;2.33;0.90;;;29.00;92.80;;;;;;5045027;28;20049;-81
2022/06/18 10:10:15;;;;;;;3.88;0.90;;;29.10;92.20;;;;;;5047689;28;20068;-79
2022/06/18 10:12:53;;;;;;;2.60;0.90;;;29.10;92.60;;;;;;5059326;28;20366;-73
2022/06/18 10:15:18;;;;;;;2.80;1.00;;;29.10;92.80;;;;;;5063839;28;20036;-75
2022/06/18 10:18:04;;;;;;;3.20;1.08;;;29.20;93.10;;;;;;5052901;28;20420;-79
2022/06/18 10:20:33;;;;;;;;;;;29.20;92.00;;;;;;5044817;28;20040;-82
2022/06/18 10:23:03;;;;;;;2.47;1.05;;;29.20;91.50;;;;;;5054225;28;19920;-74
2022/06/18 10:25:43;;;;;;;3.92;1.23;;;29.00;92.00;;;;;;5043052;28;20491;-75
2022/06/18 10:28:31;;;;;;;4.22;1.10;;;28.90;92.20;;;;;;5040897;28;20065;-85
2022/06/18 10:31:20;;;;;;;3.85;1.35;;;28.60;93.50;;;;;;5044552;28;20049;-77
2022/06/18 10:33:52;;;;;;;2.65;0.82;;;28.60;91.00;;;;;;5054775;28;20037;-75
2022/06/18 10:36:52;;;;;;;4.72;1.17;;;28.60;91.50;;;;;;5043068;28;20083;-76
2022/06/18 10:39:36;;;;;;;4.10;1.00;;;28.60;91.30;;;;;;5039278;28;20087;-76
2022/06/18 10:42:18;;;;;;;2.97;0.95;;;28.50;91.30;;;;;;5039765;28;20076;-75
2022/06/18 10:45:20;;;;;;;3.22;0.95;;;28.40;91.00;;;;;;5052557;28;20502;-77
2022/06/18 10:47:48;;;;;;;3.88;1.15;;;28.70;90.90;;;;;;5043516;28;20049;-74
2022/06/18 10:50:17;;;;;;;2.35;1.00;;;28.40;90.70;;;;;;5051942;28;20056;-75
2022/06/18 10:52:44;;;;;;;2.42;1.00;;;28.80;91.50;;;;;;5052332;28;20048;-75
2022/06/18 10:55:17;;;;;;;3.58;0.90;;;28.60;91.10;;;;;;5043690;28;20120;-75
2022/06/18 10:57:46;;;;;;;3.60;1.10;;;28.70;91.30;;;;;;5053238;28;20037;-75
2022/06/18 11:00:24;;;;;;;4.05;1.48;;;28.50;91.50;;;;;;5042652;28;20048;-73
2022/06/18 11:02:54;;;;;;;3.75;1.50;;;28.40;90.90;;;;;;5043738;28;20062;-79
2022/06/18 11:05:23;;;;;;;4.10;1.40;;;28.00;91.60;;;;;;5043056;28;20390;-78
2022/06/18 11:07:52;;;;;;;4.93;1.30;;;28.00;91.80;;;;;;5052477;28;20055;-77
2022/06/18 11:10:31;;;;;;;3.28;1.00;;;28.10;91.60;;;;;;5040155;28;20057;-74
2022/06/18 11:12:58;;;;;;;3.92;1.20;;;28.20;91.20;;;;;;5049362;28;20052;-80
2022/06/18 11:15:30;;;;;;;2.92;1.20;;;28.00;92.00;;;;;;5047367;28;20044;-72
2022/06/18 11:17:56;;;;;;;1.98;1.00;;;28.20;91.90;;;;;;5040173;28;20053;-74
2022/06/18 11:20:26;;;;;;;3.72;1.20;;;28.10;92.00;;;;;;5041842;28;20052;-76
2022/06/18 11:22:55;;;;;;;4.38;1.35;;;28.10;91.50;;;;;;5052817;28;20098;-77
2022/06/18 11:25:39;;;;;;;3.47;1.10;;;28.30;90.80;;;;;;5052101;28;20044;-77
2022/06/18 11:28:17;;;;;;;3.92;1.23;;;28.00;90.30;;;;;;5041955;28;20049;-82
2022/06/18 11:30:45;;;;;;;3.95;1.38;;;27.90;91.50;;;;;;5053328;28;20761;-88
2022/06/18 11:33:37;;;;;;;4.85;1.38;;;27.90;90.90;;;;;;5052238;28;20060;-81
2022/06/18 11:36:11;;;;;;;4.78;1.50;;;28.10;92.20;;;;;;5047185;28;20052;-80
2022/06/18 11:38:38;;;;;;;4.68;1.20;;;28.10;91.00;;;;;;5052725;28;20053;-85
2022/06/18 11:41:26;;;;;;;4.45;1.20;;;28.00;91.10;;;;;;5043027;28;20127;-82
2022/06/18 11:43:59;;;;;;;4.00;1.20;;;27.90;92.10;;;;;;5052805;28;20044;-95
2022/06/18 11:46:44;;;;;;;4.57;1.30;;;27.80;91.00;;;;;;5053251;28;20076;-79
2022/06/18 11:49:23;;;;;;;4.45;1.42;;;27.70;91.80;;;;;;5035702;28;20056;-77
2022/06/18 11:52:34;;;;;;;6.05;1.98;;;27.50;92.10;;;;;;5039059;28;20041;-80
2022/06/18 11:55:21;;;;;;;5.20;1.40;;;27.70;92.00;;;;;;4965772;28;20145;-80
2022/06/18 11:58:05;;;;;;;2.80;1.23;;;27.50;91.90;;;;;;5051783;28;20055;-77
2022/06/18 12:00:45;;;;;;;4.20;1.40;;;27.50;91.90;;;;;;5051788;28;20381;-82
2022/06/18 12:03:22;;;;;;;5.38;1.58;;;27.40;92.10;;;;;;5051284;28;20073;-77
2022/06/18 12:05:57;;;;;;;5.60;1.55;;;27.30;91.90;;;;;;5038674;28;20045;-80
2022/06/18 12:08:24;;;;;;;5.07;1.40;;;27.50;92.40;;;;;;5040181;28;20052;-82
2022/06/18 12:11:06;;;;;;;4.70;1.67;;;27.20;92.20;;;;;;5041076;28;20159;-84
2022/06/18 12:13:41;;;;;;;7.43;1.67;;;26.80;91.70;;;;;;5042208;28;20083;-84
2022/06/18 12:16:24;;;;;;;6.07;1.70;;;26.60;92.50;;;;;;5042062;28;20128;-83
2022/06/18 12:19:28;;;;;;;5.70;1.67;;;26.90;92.10;;;;;;5051098;28;20045;-83
2022/06/18 12:22:14;;;;;;;4.20;1.17;;;27.00;90.90;;;;;;5037684;28;20032;-79
2022/06/18 12:24:58;;;;;;;3.95;1.30;;;26.70;91.30;;;;;;5050716;28;20041;-79
2022/06/18 12:27:28;;;;;;;6.00;1.42;;;26.60;91.10;;;;;;5041655;28;20040;-79
2022/06/18 12:30:28;;;;;;;6.35;1.58;;;26.70;91.40;;;;;;5043362;28;20044;-87
2022/06/18 12:33:14;;;;;;;6.53;1.67;;;26.80;90.60;;;;;;5038641;28;20059;-82
2022/06/18 12:35:55;;;;;;;5.28;1.60;;;26.60;90.60;;;;;;5041247;28;20033;-85
2022/06/18 12:38:55;;;;;;;6.18;1.83;;;26.50;91.30;;;;;;5039981;28;20041;-83
2022/06/18 12:41:50;;;;;;;6.32;1.63;;;26.10;91.20;;;;;;4996463;28;20057;-80
2022/06/18 12:44:35;;;;;;;7.15;1.80;;;26.50;90.60;;;;;;5040892;28;20412;-83
2022/06/18 12:47:19;;;;;;;4.35;1.50;;;26.60;90.90;;;;;;5035816;28;20488;-82
2022/06/18 12:50:07;;;;;;;4.30;1.40;;;26.60;88.20;;;;;;5038282;28;20037;-76
2022/06/18 12:52:32;;;;;;;5.60;1.33;;;26.10;86.00;;;;;;5039136;28;20052;-75
2022/06/18 12:55:23;;;;;;;5.60;1.60;;;26.30;88.20;;;;;;5042133;28;20055;-76
2022/06/18 12:58:03;;;;;;;6.68;1.85;;;26.30;87.90;;;;;;5038662;28;20124;-77
2022/06/18 13:00:41;;;;;;;5.70;1.55;;;26.00;88.10;;;;;;5049500;28;20654;-77
2022/06/18 13:03:32;;;;;;;6.15;1.40;;;26.00;89.40;;;;;;5038670;28;20068;-77
2022/06/18 13:06:12;;;;;;;5.70;1.70;;;25.90;90.00;;;;;;5036590;28;20059;-84
2022/06/18 13:09:11;;;;;;;8.80;1.58;;;25.80;90.00;;;;;;5037074;28;20044;-84
2022/06/18 13:11:45;;;;;;;5.18;1.73;;;25.90;89.40;;;;;;5033228;28;20033;-87
2022/06/18 13:15:02;;;;;;;6.90;1.73;;;26.10;89.40;;;;;;5033548;28;20040;-79
2022/06/18 13:17:42;;;;;;;6.53;1.63;;;26.20;89.40;;;;;;5061517;28;20056;-77
2022/06/18 13:20:21;;;;;;;5.90;1.63;;;25.80;90.20;;;;;;5055589;28;20403;-74
2022/06/18 13:22:47;;;;;;;5.22;1.52;;;25.40;90.20;;;;;;5043578;28;20044;-71